Time;durP1;ratioP1;P1;durP2;ratioP2;P2;SDS_P1;SDS_P2;PMS_P1;PMS_P2;Temp;Humidity;BMP_temperature;BMP_pressure;BME280_temperature;BME280_humidity;BME280_pressure;Samples;Min_cycle;Max_cycle;Signal;HPM_P1;HPM_P2
2023/12/18 00:02:21;;;;;;;4.63;2.50;;;6.50;1.00;;;;;;8387128;28;20250;-65
2023/12/18 00:06:21;;;;;;;4.27;2.80;;;6.50;1.00;;;;;;8383004;28;20840;-66
2023/12/18 00:10:22;;;;;;;6.60;2.60;;;6.50;1.00;;;;;;8386895;28;20249;-65
2023/12/18 00:14:23;;;;;;;4.60;2.50;;;6.50;1.00;;;;;;8381835;28;20191;-64
2023/12/18 00:18:24;;;;;;;3.53;2.30;;;6.50;1.00;;;;;;8389377;28;20193;-65
2023/12/18 00:22:24;;;;;;;3.33;2.50;;;6.50;1.00;;;;;;8384439;28;20275;-66
2023/12/18 00:26:26;;;;;;;5.20;2.40;;;6.40;1.00;;;;;;8386184;28;20296;-65
2023/12/18 00:30:26;;;;;;;4.53;2.30;;;6.50;1.00;;;;;;8384276;28;20219;-66
2023/12/18 00:34:27;;;;;;;4.80;2.40;;;6.40;1.00;;;;;;8387913;28;20185;-64
2023/12/18 00:38:28;;;;;;;4.40;2.47;;;6.40;1.00;;;;;;8392244;28;20395;-66
2023/12/18 00:42:28;;;;;;;4.80;2.30;;;6.50;1.00;;;;;;8388804;28;20521;-67
2023/12/18 00:46:29;;;;;;;3.23;1.77;;;6.60;1.00;;;;;;8388389;28;20299;-65
2023/12/18 00:50:30;;;;;;;3.27;1.90;;;6.70;1.00;;;;;;8385108;28;20470;-66
2023/12/18 00:54:30;;;;;;;2.70;2.00;;;6.70;1.00;;;;;;8392755;28;20196;-65
2023/12/18 00:58:31;;;;;;;3.37;2.10;;;6.60;1.00;;;;;;8398475;28;20205;-66
2023/12/18 01:02:32;;;;;;;3.33;2.00;;;6.50;1.00;;;;;;8394247;28;20191;-65
2023/12/18 01:06:32;;;;;;;4.00;2.13;;;6.40;1.00;;;;;;8396174;28;20197;-65
2023/12/18 01:10:33;;;;;;;2.83;2.10;;;6.40;1.00;;;;;;8393046;28;20192;-65
2023/12/18 01:14:34;;;;;;;3.13;1.97;;;6.40;1.00;;;;;;8387089;28;20280;-65
2023/12/18 01:18:35;;;;;;;3.40;1.90;;;6.30;1.00;;;;;;8385783;28;20200;-65
2023/12/18 01:22:36;;;;;;;3.10;2.37;;;6.30;1.00;;;;;;8384127;28;20271;-65
2023/12/18 01:26:37;;;;;;;3.03;2.00;;;6.30;1.00;;;;;;8391763;28;20204;-66
2023/12/18 01:30:38;;;;;;;2.53;2.03;;;6.30;1.00;;;;;;8396437;28;20188;-66
2023/12/18 01:34:39;;;;;;;5.83;2.70;;;6.40;1.00;;;;;;8389593;28;20184;-63
2023/12/18 01:38:39;;;;;;;3.20;2.40;;;6.40;1.00;;;;;;8391017;28;20200;-65
2023/12/18 01:42:44;;;;;;;3.10;2.10;;;6.40;1.00;;;;;;8392879;28;20246;-65
2023/12/18 01:46:48;;;;;;;3.40;2.50;;;6.50;1.00;;;;;;8396932;28;20200;-67
2023/12/18 01:50:49;;;;;;;3.87;2.40;;;6.50;1.00;;;;;;8392501;28;20181;-65
2023/12/18 01:54:51;;;;;;;3.60;2.37;;;6.50;1.00;;;;;;8395335;28;20242;-65
2023/12/18 01:58:54;;;;;;;3.30;2.27;;;6.50;1.00;;;;;;8396963;28;20203;-65
2023/12/18 02:02:54;;;;;;;3.30;2.33;;;6.50;1.00;;;;;;8391838;28;20200;-65
2023/12/18 02:07:00;;;;;;;3.10;2.07;;;6.50;1.00;;;;;;8391445;28;20234;-64
2023/12/18 02:11:02;;;;;;;3.17;2.20;;;6.40;1.00;;;;;;8405502;28;20280;-64
2023/12/18 02:15:02;;;;;;;5.90;2.43;;;6.40;1.00;;;;;;8392495;28;20263;-65
2023/12/18 02:19:03;;;;;;;3.07;2.50;;;6.40;1.00;;;;;;8389035;28;20189;-64
2023/12/18 02:23:04;;;;;;;4.73;2.47;;;6.40;1.00;;;;;;8391254;28;20208;-64
2023/12/18 02:27:05;;;;;;;2.27;2.00;;;6.40;1.30;;;;;;8392994;28;20308;-64
2023/12/18 02:31:07;;;;;;;3.07;1.97;;;6.40;1.00;;;;;;8387538;28;20189;-65
2023/12/18 02:35:09;;;;;;;3.23;2.20;;;6.30;2.50;;;;;;8393711;28;20195;-65
2023/12/18 02:39:09;;;;;;;4.37;2.30;;;6.40;7.70;;;;;;8393394;28;20185;-64
2023/12/18 02:43:10;;;;;;;2.90;2.27;;;6.40;8.70;;;;;;8390537;28;20291;-64
2023/12/18 02:47:11;;;;;;;3.73;2.13;;;6.30;11.80;;;;;;8388164;28;20517;-65
2023/12/18 02:51:12;;;;;;;3.53;1.73;;;6.30;16.60;;;;;;8394563;28;20283;-65
2023/12/18 02:55:13;;;;;;;3.23;2.00;;;6.40;16.80;;;;;;8395033;28;20212;-65
2023/12/18 02:59:14;;;;;;;2.80;1.90;;;6.40;10.50;;;;;;8413440;28;20191;-66
2023/12/18 03:03:14;;;;;;;2.80;2.13;;;6.40;17.80;;;;;;8394381;28;20223;-69
2023/12/18 03:07:15;;;;;;;2.57;1.60;;;6.40;21.30;;;;;;8399353;28;20216;-65
2023/12/18 03:11:16;;;;;;;5.03;1.97;;;6.50;13.70;;;;;;8389135;28;21222;-65
2023/12/18 03:15:17;;;;;;;3.20;1.97;;;6.50;8.00;;;;;;8392484;28;20773;-65
2023/12/18 03:19:18;;;;;;;3.10;2.10;;;6.50;11.40;;;;;;8386373;28;20320;-65
2023/12/18 03:23:19;;;;;;;3.07;2.17;;;6.50;13.00;;;;;;8385469;28;20299;-65
2023/12/18 03:27:20;;;;;;;5.10;2.10;;;6.40;12.80;;;;;;8385123;28;20209;-65
2023/12/18 03:31:20;;;;;;;2.67;1.93;;;6.30;22.70;;;;;;8386708;28;20337;-65
2023/12/18 03:35:21;;;;;;;3.17;2.30;;;6.30;16.60;;;;;;8384641;28;20185;-65
2023/12/18 03:39:22;;;;;;;3.37;2.10;;;6.30;14.40;;;;;;8385918;28;20200;-67
2023/12/18 03:43:24;;;;;;;3.23;2.33;;;6.30;24.60;;;;;;8388650;28;20208;-67
2023/12/18 03:47:24;;;;;;;2.70;2.07;;;6.30;16.30;;;;;;8391313;28;20211;-66
2023/12/18 03:51:25;;;;;;;3.20;2.30;;;6.30;13.00;;;;;;8386627;28;20186;-66
2023/12/18 03:55:26;;;;;;;2.77;1.90;;;6.30;17.00;;;;;;8389927;28;20426;-65
2023/12/18 03:59:27;;;;;;;4.00;2.00;;;6.30;16.60;;;;;;8385476;28;20432;-65
2023/12/18 04:03:28;;;;;;;2.27;1.60;;;6.20;23.50;;;;;;8383511;28;20216;-66
2023/12/18 04:07:28;;;;;;;2.80;2.00;;;6.10;27.50;;;;;;8387452;28;20212;-66
2023/12/18 04:11:29;;;;;;;3.73;2.43;;;6.20;25.60;;;;;;8389499;28;20187;-65
2023/12/18 04:15:30;;;;;;;3.50;2.10;;;6.20;22.80;;;;;;8394079;28;20265;-64
2023/12/18 04:19:30;;;;;;;2.73;1.83;;;6.10;22.40;;;;;;8388287;28;20192;-66
2023/12/18 04:23:31;;;;;;;4.47;2.27;;;6.00;25.30;;;;;;8391078;28;20224;-65
2023/12/18 04:27:32;;;;;;;5.50;2.40;;;6.00;20.10;;;;;;8396600;28;20213;-65
2023/12/18 04:31:32;;;;;;;3.90;2.57;;;6.00;19.00;;;;;;8398200;28;20188;-63
2023/12/18 04:35:33;;;;;;;3.77;2.37;;;5.90;37.30;;;;;;8396473;28;20188;-64
2023/12/18 04:39:34;;;;;;;3.90;2.40;;;5.80;29.30;;;;;;8408531;28;20191;-64
2023/12/18 04:43:35;;;;;;;4.40;2.47;;;5.80;37.10;;;;;;8395199;28;20501;-64
2023/12/18 04:47:35;;;;;;;3.53;2.30;;;5.80;38.70;;;;;;8399106;28;20204;-63
2023/12/18 04:51:39;;;;;;;4.60;2.53;;;5.80;36.60;;;;;;8397747;28;20335;-63
2023/12/18 04:55:40;;;;;;;4.13;2.90;;;5.70;33.40;;;;;;8398798;28;20196;-64
2023/12/18 04:59:41;;;;;;;6.57;2.83;;;5.60;40.00;;;;;;8403494;28;20245;-64
2023/12/18 05:03:41;;;;;;;4.33;2.90;;;5.50;43.70;;;;;;8391034;28;20195;-64
2023/12/18 05:07:42;;;;;;;4.87;2.97;;;5.50;47.60;;;;;;8397863;28;20224;-64
2023/12/18 05:11:43;;;;;;;3.97;2.60;;;5.50;49.00;;;;;;8399321;28;20220;-64
2023/12/18 05:15:44;;;;;;;4.37;2.87;;;5.40;44.20;;;;;;8394734;28;20196;-64
2023/12/18 05:19:45;;;;;;;5.67;3.10;;;5.30;41.10;;;;;;8401639;28;20250;-65
2023/12/18 05:23:47;;;;;;;5.63;3.10;;;5.30;49.30;;;;;;8396533;28;20191;-65
2023/12/18 05:27:48;;;;;;;5.03;3.10;;;5.20;51.10;;;;;;8400304;28;20285;-64
2023/12/18 05:31:48;;;;;;;4.63;3.13;;;5.10;46.70;;;;;;8405159;28;20185;-65
2023/12/18 05:35:49;;;;;;;3.93;2.77;;;5.10;47.90;;;;;;8402409;28;20191;-65
2023/12/18 05:39:50;;;;;;;4.00;3.20;;;5.10;44.60;;;;;;8397073;28;20310;-65
2023/12/18 05:43:50;;;;;;;4.20;2.70;;;5.00;44.00;;;;;;8397398;28;20273;-64
2023/12/18 05:47:51;;;;;;;2.97;2.37;;;5.10;43.10;;;;;;8394911;28;20296;-65
2023/12/18 05:51:52;;;;;;;3.83;2.77;;;5.10;35.20;;;;;;8398086;28;20230;-65
2023/12/18 05:55:53;;;;;;;4.83;2.60;;;5.20;22.10;;;;;;8396076;28;20211;-63
2023/12/18 05:59:54;;;;;;;3.30;2.23;;;5.20;12.00;;;;;;8394020;28;20219;-64
2023/12/18 06:03:55;;;;;;;4.43;2.80;;;5.30;9.80;;;;;;8395896;28;20187;-65
2023/12/18 06:07:55;;;;;;;4.07;2.43;;;5.30;2.40;;;;;;8409397;27;20201;-65
2023/12/18 06:11:56;;;;;;;3.10;2.23;;;5.40;1.00;;;;;;8392976;28;20181;-64
2023/12/18 06:15:58;;;;;;;4.70;2.43;;;5.30;1.00;;;;;;8400100;28;20185;-65
2023/12/18 06:19:59;;;;;;;5.37;2.80;;;5.30;1.30;;;;;;8399544;28;20220;-64
2023/12/18 06:24:00;;;;;;;3.67;2.53;;;5.20;5.70;;;;;;8397453;28;20195;-64
2023/12/18 06:28:00;;;;;;;3.70;2.70;;;5.20;7.40;;;;;;8404062;28;20209;-64
2023/12/18 06:32:01;;;;;;;2.90;2.50;;;5.10;7.60;;;;;;8399213;28;20180;-64
2023/12/18 06:36:02;;;;;;;4.07;2.57;;;5.20;11.50;;;;;;8398844;28;20187;-66
2023/12/18 06:40:03;;;;;;;3.77;2.50;;;5.20;13.80;;;;;;8390568;28;20245;-64
2023/12/18 06:44:05;;;;;;;3.50;2.53;;;5.20;7.20;;;;;;8392082;28;20255;-65
2023/12/18 06:48:06;;;;;;;4.57;2.60;;;5.20;5.70;;;;;;8395393;28;20235;-64
2023/12/18 06:52:07;;;;;;;3.73;2.50;;;5.20;17.10;;;;;;8386589;28;20231;-65
2023/12/18 06:56:08;;;;;;;3.30;2.70;;;5.20;7.70;;;;;;8369526;28;20221;-64
2023/12/18 07:00:09;;;;;;;4.03;2.60;;;5.20;1.00;;;;;;8358986;28;20284;-65
2023/12/18 07:04:10;;;;;;;3.03;2.30;;;5.20;1.00;;;;;;8356309;28;20197;-66
2023/12/18 07:08:11;;;;;;;5.43;2.73;;;5.10;1.70;;;;;;8360282;28;20225;-65
2023/12/18 07:12:12;;;;;;;4.27;2.60;;;5.10;4.10;;;;;;8350027;28;20278;-65
2023/12/18 07:16:22;;;;;;;4.07;2.57;;;5.10;9.80;;;;;;8357419;28;20230;-64
2023/12/18 07:20:24;;;;;;;4.00;2.47;;;5.10;15.40;;;;;;8387179;28;20224;-64
2023/12/18 07:24:24;;;;;;;3.60;3.00;;;5.00;17.40;;;;;;8391206;28;20187;-64
2023/12/18 07:28:25;;;;;;;4.73;3.23;;;5.00;30.80;;;;;;8396566;28;20252;-64
2023/12/18 07:32:26;;;;;;;3.93;2.83;;;5.10;35.20;;;;;;8389149;28;20249;-65
2023/12/18 07:36:26;;;;;;;4.13;3.13;;;5.20;21.30;;;;;;8389682;28;20347;-65
2023/12/18 07:40:27;;;;;;;3.40;2.67;;;5.30;10.00;;;;;;8390846;28;20184;-65
2023/12/18 07:44:28;;;;;;;3.80;2.43;;;5.40;5.70;;;;;;8395293;28;20208;-64
2023/12/18 07:48:31;;;;;;;3.77;2.33;;;5.50;1.60;;;;;;8408456;28;20281;-64
2023/12/18 07:52:33;;;;;;;4.23;2.40;;;5.60;1.00;;;;;;8390929;28;20189;-65
2023/12/18 07:56:33;;;;;;;3.37;2.43;;;5.80;1.00;;;;;;8390645;28;20199;-65
2023/12/18 08:00:34;;;;;;;2.60;2.03;;;5.90;1.00;;;;;;8391179;28;20198;-65
2023/12/18 08:04:35;;;;;;;3.43;2.37;;;6.00;1.00;;;;;;8392439;28;20192;-65
2023/12/18 08:08:36;;;;;;;3.67;2.30;;;6.10;1.00;;;;;;8386795;28;20449;-65
2023/12/18 08:12:37;;;;;;;4.83;2.40;;;6.20;1.00;;;;;;8394899;28;20200;-65
2023/12/18 08:16:38;;;;;;;4.70;2.30;;;6.20;1.00;;;;;;8393194;28;20249;-65
2023/12/18 08:20:39;;;;;;;4.70;2.70;;;6.20;1.00;;;;;;8396771;28;20215;-65
2023/12/18 08:24:40;;;;;;;3.60;2.60;;;6.30;1.00;;;;;;8391938;28;20185;-64
2023/12/18 08:28:42;;;;;;;3.53;2.50;;;6.20;1.00;;;;;;8390670;28;20217;-65
2023/12/18 08:32:42;;;;;;;4.13;2.70;;;6.30;1.00;;;;;;8395997;28;20196;-64
2023/12/18 08:36:43;;;;;;;3.77;2.40;;;6.40;1.00;;;;;;8393599;28;20196;-64
2023/12/18 08:40:45;;;;;;;3.03;2.37;;;6.40;1.00;;;;;;8387990;28;20191;-64
2023/12/18 08:44:46;;;;;;;3.60;2.47;;;6.50;1.00;;;;;;8391009;28;20208;-65
2023/12/18 08:48:46;;;;;;;5.10;2.50;;;6.50;1.00;;;;;;8395510;28;20335;-64
2023/12/18 08:52:47;;;;;;;4.43;2.40;;;6.70;1.00;;;;;;8395605;28;20189;-66
2023/12/18 08:56:50;;;;;;;4.87;2.63;;;6.80;1.00;;;;;;8394163;28;20196;-67
2023/12/18 09:00:54;;;;;;;2.77;2.20;;;6.90;1.00;;;;;;8398748;28;20914;-65
2023/12/18 09:04:55;;;;;;;3.23;2.30;;;7.00;1.00;;;;;;8395704;28;20189;-65
2023/12/18 09:08:56;;;;;;;2.60;2.30;;;7.10;1.00;;;;;;8397527;28;20224;-64
2023/12/18 09:12:56;;;;;;;2.40;2.13;;;7.20;1.00;;;;;;8402349;28;20216;-66
2023/12/18 09:16:57;;;;;;;2.53;1.93;;;7.30;1.00;;;;;;8404091;28;20184;-65
2023/12/18 09:20:58;;;;;;;3.13;2.27;;;7.40;1.00;;;;;;8391733;28;20314;-64
2023/12/18 09:24:58;;;;;;;2.83;2.40;;;7.50;1.00;;;;;;8395782;28;20185;-66
2023/12/18 09:28:59;;;;;;;4.53;2.10;;;7.40;1.00;;;;;;8395728;28;20239;-64
2023/12/18 09:33:00;;;;;;;3.70;2.30;;;7.50;1.00;;;;;;8405469;28;20203;-63
2023/12/18 09:37:01;;;;;;;2.93;2.00;;;7.60;1.00;;;;;;8395130;28;20181;-69
2023/12/18 09:41:02;;;;;;;3.20;2.40;;;7.60;1.00;;;;;;8398464;28;20561;-65
2023/12/18 09:45:04;;;;;;;2.73;2.30;;;7.70;1.00;;;;;;8394864;28;20218;-65
2023/12/18 09:49:04;;;;;;;2.83;1.80;;;7.80;1.00;;;;;;8398697;28;20205;-66
2023/12/18 09:53:10;;;;;;;5.10;2.30;;;7.80;1.00;;;;;;8402108;28;20187;-66
2023/12/18 09:57:17;;;;;;;2.67;2.23;;;7.80;1.00;;;;;;8390491;28;20357;-66
2023/12/18 10:01:18;;;;;;;2.73;2.37;;;7.90;1.00;;;;;;8400029;28;20185;-67
2023/12/18 10:05:19;;;;;;;3.60;2.50;;;7.90;1.00;;;;;;8395154;28;20484;-66
2023/12/18 10:09:20;;;;;;;2.97;2.30;;;7.90;1.00;;;;;;8396096;28;20201;-64
2023/12/18 10:13:22;;;;;;;2.97;2.00;;;7.90;1.00;;;;;;8394517;28;20188;-64
2023/12/18 10:17:23;;;;;;;3.53;2.07;;;7.90;1.00;;;;;;8400066;28;20219;-67
2023/12/18 10:21:24;;;;;;;2.07;1.80;;;8.00;1.00;;;;;;8384016;28;20251;-65
2023/12/18 10:25:25;;;;;;;2.90;2.30;;;8.10;1.00;;;;;;8392408;28;20200;-65
2023/12/18 10:29:25;;;;;;;3.10;2.33;;;8.10;1.00;;;;;;8392187;28;20205;-66
2023/12/18 10:33:27;;;;;;;2.70;2.13;;;8.20;1.00;;;;;;8393362;28;20252;-67
2023/12/18 10:37:30;;;;;;;3.10;2.37;;;8.30;1.00;;;;;;8399068;28;20184;-66
2023/12/18 10:41:35;;;;;;;3.57;2.67;;;8.40;1.00;;;;;;8398700;28;20215;-68
2023/12/18 10:45:37;;;;;;;3.50;2.10;;;8.50;1.00;;;;;;8395711;28;20295;-66
2023/12/18 10:49:40;;;;;;;2.80;2.23;;;8.40;1.00;;;;;;8401424;28;20261;-65
2023/12/18 10:53:42;;;;;;;2.80;2.10;;;8.70;1.00;;;;;;8397834;28;20189;-64
2023/12/18 10:57:48;;;;;;;2.53;2.17;;;8.70;1.00;;;;;;8392920;28;20193;-65
2023/12/18 11:01:50;;;;;;;2.87;2.10;;;8.70;1.00;;;;;;8395078;28;20218;-67
2023/12/18 11:05:52;;;;;;;4.07;2.20;;;8.70;1.00;;;;;;8387525;28;20206;-66
2023/12/18 11:09:54;;;;;;;2.73;2.13;;;8.60;1.00;;;;;;8390300;28;20213;-66
2023/12/18 11:14:26;;;;;;;4.73;2.20;;;8.40;1.00;;;;;;8396260;28;20217;-66
2023/12/18 11:18:47;;;;;;;2.70;2.30;;;8.00;1.00;;;;;;8394339;28;20193;-69
2023/12/18 11:22:52;;;;;;;4.13;2.37;;;7.90;1.00;;;;;;8395806;28;20192;-68
2023/12/18 11:26:53;;;;;;;2.33;2.13;;;7.90;1.00;;;;;;8395269;28;20259;-68
2023/12/18 11:31:00;;;;;;;2.77;2.00;;;8.10;1.00;;;;;;8390073;28;20185;-65
2023/12/18 11:35:01;;;;;;;2.10;1.90;;;8.30;1.00;;;;;;8394850;28;20223;-67
2023/12/18 11:39:03;;;;;;;3.37;1.90;;;8.40;1.00;;;;;;8395022;28;20193;-66
2023/12/18 11:43:05;;;;;;;3.00;1.90;;;8.60;1.00;;;;;;8390984;28;20212;-65
2023/12/18 11:47:07;;;;;;;3.27;1.87;;;8.70;1.00;;;;;;8390475;28;20296;-66
2023/12/18 11:51:10;;;;;;;2.20;1.73;;;8.80;1.00;;;;;;8396623;28;20245;-64
2023/12/18 11:55:12;;;;;;;2.83;1.87;;;9.00;1.00;;;;;;8391796;28;20194;-65
2023/12/18 11:59:15;;;;;;;2.13;1.53;;;9.10;1.00;;;;;;8398464;28;20190;-68
2023/12/18 12:03:17;;;;;;;2.07;1.53;;;9.00;1.00;;;;;;8388358;28;20187;-68
2023/12/18 12:07:18;;;;;;;2.87;1.80;;;9.10;1.00;;;;;;8388984;28;20213;-66
2023/12/18 12:11:20;;;;;;;4.17;1.97;;;9.00;1.00;;;;;;8389217;28;20182;-64
2023/12/18 12:15:24;;;;;;;3.33;1.40;;;9.00;1.00;;;;;;8386760;28;20196;-65
2023/12/18 12:19:32;;;;;;;1.83;1.53;;;9.00;1.00;;;;;;8390609;28;20199;-67
2023/12/18 12:23:33;;;;;;;4.33;1.90;;;9.10;1.00;;;;;;8387635;28;20564;-65
2023/12/18 12:27:34;;;;;;;2.17;1.60;;;9.10;1.00;;;;;;8388264;28;20206;-65
2023/12/18 12:31:35;;;;;;;3.90;1.73;;;9.20;1.00;;;;;;8391738;28;20184;-69
2023/12/18 12:35:36;;;;;;;1.63;1.53;;;9.20;1.00;;;;;;8390761;28;20522;-67
2023/12/18 12:39:36;;;;;;;1.93;1.40;;;9.30;1.00;;;;;;8395848;28;20187;-64
2023/12/18 12:43:37;;;;;;;2.00;1.73;;;9.20;1.00;;;;;;8396596;28;20242;-67
2023/12/18 12:47:39;;;;;;;1.30;1.20;;;9.20;1.00;;;;;;8393986;28;20211;-67
2023/12/18 12:51:40;;;;;;;2.10;1.80;;;9.20;1.00;;;;;;8395627;28;20201;-65
2023/12/18 12:55:42;;;;;;;3.20;1.60;;;9.20;1.00;;;;;;8397217;28;20196;-64
2023/12/18 12:59:53;;;;;;;3.10;1.70;;;9.30;1.00;;;;;;8403046;28;20190;-67
2023/12/18 13:03:54;;;;;;;1.80;1.40;;;9.30;1.00;;;;;;8401427;28;20308;-67
2023/12/18 13:07:55;;;;;;;2.93;1.60;;;9.30;1.00;;;;;;8400535;28;20206;-66
2023/12/18 13:11:56;;;;;;;2.07;1.70;;;9.20;1.00;;;;;;8400362;28;20186;-68
2023/12/18 13:15:59;;;;;;;2.10;1.50;;;9.20;1.00;;;;;;8401690;28;20190;-69
2023/12/18 13:20:00;;;;;;;5.30;1.70;;;9.10;1.00;;;;;;8400430;28;20193;-68
2023/12/18 13:24:01;;;;;;;3.77;1.80;;;9.10;1.00;;;;;;8395126;28;20244;-66
2023/12/18 13:28:02;;;;;;;2.70;1.33;;;9.10;1.00;;;;;;8400399;28;20206;-67
2023/12/18 13:32:03;;;;;;;1.63;1.33;;;9.10;1.00;;;;;;8403480;28;20184;-66
2023/12/18 13:36:04;;;;;;;1.47;1.37;;;9.10;1.00;;;;;;8398366;28;20198;-73
2023/12/18 13:40:06;;;;;;;1.63;1.37;;;9.10;1.00;;;;;;8394640;28;20251;-66
2023/12/18 13:44:06;;;;;;;3.40;1.40;;;9.10;1.00;;;;;;8402124;28;20301;-67
2023/12/18 13:48:08;;;;;;;2.20;1.27;;;9.10;1.00;;;;;;8399260;28;20206;-66
2023/12/18 13:52:09;;;;;;;2.37;1.40;;;9.10;1.00;;;;;;8397774;28;20189;-65
2023/12/18 13:56:09;;;;;;;1.50;1.40;;;9.10;1.00;;;;;;8399269;28;20183;-66
2023/12/18 14:00:11;;;;;;;1.87;1.27;;;9.00;1.00;;;;;;8395982;28;20202;-66
2023/12/18 14:04:12;;;;;;;1.70;1.47;;;9.00;1.00;;;;;;8399241;28;20194;-66
2023/12/18 14:08:13;;;;;;;2.47;1.70;;;8.90;1.00;;;;;;8391605;28;20207;-66
2023/12/18 14:12:14;;;;;;;2.00;1.57;;;8.70;1.00;;;;;;8392013;28;20191;-65
2023/12/18 14:16:15;;;;;;;1.97;1.60;;;8.60;1.00;;;;;;8392097;28;20278;-67
2023/12/18 14:20:16;;;;;;;2.73;1.37;;;8.50;1.00;;;;;;8388285;28;20787;-67
2023/12/18 14:24:17;;;;;;;2.20;1.47;;;8.40;1.00;;;;;;8390792;28;20193;-64
2023/12/18 14:28:18;;;;;;;1.50;1.30;;;8.30;1.00;;;;;;8394053;28;20220;-65
2023/12/18 14:32:19;;;;;;;2.60;1.60;;;8.20;1.00;;;;;;8390784;28;20243;-65
2023/12/18 14:36:20;;;;;;;2.23;1.30;;;8.10;1.00;;;;;;8389292;28;20181;-66
2023/12/18 14:40:21;;;;;;;1.97;1.47;;;7.90;1.00;;;;;;8386676;28;20868;-65
2023/12/18 14:44:22;;;;;;;3.33;1.60;;;7.70;1.00;;;;;;8410721;28;20221;-65
2023/12/18 14:48:24;;;;;;;1.43;1.27;;;7.50;1.00;;;;;;8395461;28;20204;-64
2023/12/18 14:52:25;;;;;;;3.93;1.50;;;7.40;1.00;;;;;;8398739;28;20176;-64
2023/12/18 14:56:25;;;;;;;3.13;1.30;;;7.30;1.00;;;;;;8395044;28;20220;-65
2023/12/18 15:00:28;;;;;;;2.17;1.20;;;7.30;1.00;;;;;;8392857;28;20188;-65
2023/12/18 15:04:29;;;;;;;2.70;1.73;;;7.20;1.00;;;;;;8400930;28;20193;-65
2023/12/18 15:08:29;;;;;;;1.50;1.40;;;7.10;1.00;;;;;;8389048;28;20209;-64
2023/12/18 15:12:30;;;;;;;2.40;1.30;;;7.00;1.00;;;;;;8392940;28;20592;-64
2023/12/18 15:16:31;;;;;;;1.50;1.20;;;6.90;1.00;;;;;;8389631;28;20185;-64
2023/12/18 15:20:32;;;;;;;2.20;2.00;;;6.80;1.00;;;;;;8393252;28;20188;-64
2023/12/18 15:24:34;;;;;;;2.30;1.60;;;6.60;1.00;;;;;;8393150;28;20192;-64
2023/12/18 15:28:35;;;;;;;1.77;1.30;;;6.40;1.00;;;;;;8389763;28;20293;-64
2023/12/18 15:32:38;;;;;;;1.57;1.37;;;6.30;1.00;;;;;;8387653;28;20237;-65
2023/12/18 15:36:39;;;;;;;1.53;1.27;;;6.20;1.00;;;;;;8387336;28;20251;-64
2023/12/18 15:40:40;;;;;;;2.10;1.57;;;6.10;1.00;;;;;;8386484;28;20192;-65
2023/12/18 15:44:41;;;;;;;1.67;1.57;;;5.90;1.00;;;;;;8387818;28;20602;-64
2023/12/18 15:48:41;;;;;;;2.03;1.53;;;5.80;1.00;;;;;;8394120;28;20219;-64
2023/12/18 15:52:42;;;;;;;1.70;1.50;;;5.60;1.00;;;;;;8388068;28;20200;-65
2023/12/18 15:56:44;;;;;;;8.37;4.07;;;5.40;1.00;;;;;;8388727;28;20199;-65
2023/12/18 16:00:45;;;;;;;4.83;2.40;;;5.20;1.00;;;;;;8386590;28;20227;-65
2023/12/18 16:04:46;;;;;;;3.00;2.73;;;5.00;1.00;;;;;;8394655;28;20206;-64
2023/12/18 16:08:46;;;;;;;3.63;3.33;;;4.90;1.00;;;;;;8385879;28;20219;-65
2023/12/18 16:12:47;;;;;;;3.20;2.30;;;4.90;5.70;;;;;;8389992;28;20204;-65
2023/12/18 16:16:48;;;;;;;3.37;2.50;;;4.80;19.20;;;;;;8383276;28;20197;-65
2023/12/18 16:20:49;;;;;;;3.00;2.13;;;4.70;22.90;;;;;;8382267;28;20192;-65
2023/12/18 16:24:50;;;;;;;4.63;2.10;;;4.60;30.80;;;;;;8394140;28;20192;-65
2023/12/18 16:28:51;;;;;;;3.43;2.80;;;4.50;42.80;;;;;;8396032;28;20220;-65
2023/12/18 16:32:51;;;;;;;4.97;2.90;;;4.50;68.80;;;;;;8398427;28;20244;-65
2023/12/18 16:36:52;;;;;;;6.53;3.80;;;4.50;73.20;;;;;;8395105;28;20219;-65
2023/12/18 16:40:54;;;;;;;20.47;10.87;;;4.40;83.70;;;;;;8397672;28;20201;-65
2023/12/18 16:44:54;;;;;;;8.87;5.77;;;4.40;90.50;;;;;;8400723;28;20295;-65
2023/12/18 16:48:55;;;;;;;9.40;5.07;;;4.40;93.10;;;;;;8395892;28;20224;-64
2023/12/18 16:52:56;;;;;;;8.13;6.43;;;4.30;92.70;;;;;;8390827;28;20272;-64
2023/12/18 16:56:56;;;;;;;8.43;6.87;;;4.30;92.90;;;;;;8395948;28;20497;-64
2023/12/18 17:00:57;;;;;;;9.37;5.70;;;4.30;97.20;;;;;;8400677;28;20215;-65
2023/12/18 17:04:58;;;;;;;7.00;4.97;;;4.30;98.20;;;;;;8388373;28;20220;-65
2023/12/18 17:08:59;;;;;;;9.60;5.13;;;4.30;99.20;;;;;;8386554;28;20244;-64
2023/12/18 17:13:00;;;;;;;7.20;5.10;;;4.30;98.50;;;;;;8384878;28;20213;-64
2023/12/18 17:17:00;;;;;;;9.40;5.73;;;4.40;82.50;;;;;;8388655;28;20223;-65
2023/12/18 17:21:01;;;;;;;10.20;6.10;;;4.40;58.80;;;;;;8395592;28;20189;-65
2023/12/18 17:25:02;;;;;;;10.47;6.60;;;4.50;18.90;;;;;;8395278;28;20193;-65
2023/12/18 17:29:03;;;;;;;7.83;5.47;;;4.60;3.70;;;;;;8394195;28;20217;-64
2023/12/18 17:33:06;;;;;;;11.07;7.07;;;4.60;1.00;;;;;;8397063;28;20189;-64
2023/12/18 17:37:07;;;;;;;11.30;8.00;;;4.60;1.00;;;;;;8414051;28;20213;-65
2023/12/18 17:41:08;;;;;;;35.93;23.60;;;4.60;1.00;;;;;;8391410;28;20181;-63
2023/12/18 17:45:10;;;;;;;12.03;6.73;;;4.50;1.00;;;;;;8405164;28;20307;-65
2023/12/18 17:49:11;;;;;;;10.70;6.93;;;4.50;1.00;;;;;;8394638;28;20204;-67
2023/12/18 17:53:12;;;;;;;10.07;6.40;;;4.40;1.00;;;;;;8395675;28;20219;-66
2023/12/18 17:57:14;;;;;;;11.10;5.93;;;4.30;1.00;;;;;;8406805;28;20407;-65
2023/12/18 18:01:14;;;;;;;9.37;6.33;;;4.20;1.00;;;;;;8407728;28;20827;-64
2023/12/18 18:05:15;;;;;;;10.27;6.23;;;4.20;1.00;;;;;;8392357;28;20207;-64
2023/12/18 18:09:16;;;;;;;8.53;5.90;;;4.10;1.00;;;;;;8391397;28;20299;-65
2023/12/18 18:13:17;;;;;;;12.03;6.43;;;4.00;4.80;;;;;;8405334;28;20184;-65
2023/12/18 18:17:21;;;;;;;8.93;6.10;;;3.90;10.10;;;;;;8389724;28;20189;-65
2023/12/18 18:21:22;;;;;;;10.27;5.97;;;3.80;15.00;;;;;;8392656;28;20207;-65
2023/12/18 18:25:23;;;;;;;12.07;6.17;;;3.80;22.30;;;;;;8387587;28;20180;-64
2023/12/18 18:29:23;;;;;;;13.00;6.33;;;3.70;28.40;;;;;;8386949;28;20212;-65
2023/12/18 18:33:25;;;;;;;11.90;7.43;;;3.60;35.20;;;;;;8392218;28;20188;-65
2023/12/18 18:37:26;;;;;;;11.60;7.07;;;3.60;40.20;;;;;;8393280;28;20261;-65
2023/12/18 18:41:27;;;;;;;11.43;6.77;;;3.60;41.90;;;;;;8394312;28;20307;-65
2023/12/18 18:45:28;;;;;;;11.17;6.43;;;3.50;44.20;;;;;;8394095;28;20177;-65
2023/12/18 18:49:29;;;;;;;11.57;7.13;;;3.50;51.20;;;;;;8394769;28;20230;-65
2023/12/18 18:53:34;;;;;;;11.37;6.53;;;3.40;64.00;;;;;;8391243;28;20181;-65
2023/12/18 18:57:35;;;;;;;11.27;6.50;;;3.30;91.00;;;;;;8395219;28;20189;-64
2023/12/18 19:01:37;;;;;;;11.23;7.10;;;3.20;85.10;;;;;;8394991;28;20212;-64
2023/12/18 19:05:38;;;;;;;17.23;9.43;;;3.20;94.60;;;;;;8397418;28;20231;-65
2023/12/18 19:09:39;;;;;;;12.80;7.00;;;3.20;99.90;;;;;;8409065;28;20257;-64
2023/12/18 19:13:40;;;;;;;13.90;8.30;;;3.30;96.10;;;;;;8393759;28;20202;-64
2023/12/18 19:17:41;;;;;;;16.57;8.80;;;3.40;71.20;;;;;;8384634;28;20189;-65
2023/12/18 19:21:42;;;;;;;15.03;8.67;;;3.50;45.50;;;;;;8407595;28;20194;-66
2023/12/18 19:25:44;;;;;;;16.83;9.10;;;3.60;35.00;;;;;;8393227;28;20220;-64
2023/12/18 19:29:45;;;;;;;15.37;8.37;;;3.70;1.00;;;;;;8395756;28;20254;-65
2023/12/18 19:33:46;;;;;;;14.53;8.20;;;3.90;1.00;;;;;;8388825;28;20381;-65
2023/12/18 19:37:46;;;;;;;13.57;7.37;;;4.10;1.00;;;;;;8395841;28;20268;-65
2023/12/18 19:41:52;;;;;;;11.70;7.30;;;4.20;1.00;;;;;;8393080;28;20280;-63
2023/12/18 19:45:54;;;;;;;11.33;6.80;;;4.30;1.00;;;;;;8388489;28;20193;-65
2023/12/18 19:49:55;;;;;;;18.77;6.93;;;4.40;1.00;;;;;;8386936;28;20288;-66
2023/12/18 19:53:58;;;;;;;9.67;6.53;;;4.50;1.00;;;;;;8373948;28;20257;-65
2023/12/18 19:57:59;;;;;;;11.07;6.37;;;4.50;1.00;;;;;;8386832;28;20180;-64
2023/12/18 20:02:00;;;;;;;8.00;5.10;;;4.60;1.00;;;;;;8393571;28;20196;-64
2023/12/18 20:06:04;;;;;;;13.07;6.93;;;4.60;1.00;;;;;;8393709;28;20291;-66
2023/12/18 20:10:05;;;;;;;8.80;5.60;;;4.60;1.00;;;;;;8386928;28;20207;-66
2023/12/18 20:14:07;;;;;;;9.73;5.67;;;4.60;1.00;;;;;;8386636;28;20330;-65
2023/12/18 20:18:08;;;;;;;9.57;5.30;;;4.60;1.00;;;;;;8391789;28;20181;-65
2023/12/18 20:22:09;;;;;;;9.03;5.23;;;4.60;1.00;;;;;;8385685;28;20206;-65
2023/12/18 20:26:10;;;;;;;9.03;5.30;;;4.70;1.00;;;;;;8389930;28;20234;-67
2023/12/18 20:30:11;;;;;;;7.10;4.40;;;4.90;1.00;;;;;;8395237;28;20288;-64
2023/12/18 20:34:12;;;;;;;9.00;4.53;;;4.90;1.00;;;;;;8396021;28;20268;-64
2023/12/18 20:38:15;;;;;;;8.53;4.53;;;5.00;1.00;;;;;;8392109;28;20181;-64
2023/12/18 20:42:15;;;;;;;8.70;4.90;;;5.10;1.00;;;;;;8385794;28;20204;-65
2023/12/18 20:46:16;;;;;;;9.57;4.80;;;5.10;1.00;;;;;;8385911;28;20650;-65
2023/12/18 20:50:17;;;;;;;8.80;4.83;;;5.00;1.00;;;;;;8392291;28;20601;-65
2023/12/18 20:54:18;;;;;;;6.73;4.03;;;4.90;1.00;;;;;;8385966;28;20269;-65
2023/12/18 20:58:18;;;;;;;6.80;3.90;;;5.00;1.00;;;;;;8392514;28;20185;-65
2023/12/18 21:02:19;;;;;;;5.20;3.73;;;5.00;1.00;;;;;;8390059;28;20185;-65
2023/12/18 21:06:20;;;;;;;6.03;3.67;;;5.00;1.00;;;;;;8382097;28;20192;-64
2023/12/18 21:10:21;;;;;;;4.90;3.70;;;5.20;1.00;;;;;;8406116;28;20211;-65
2023/12/18 21:14:22;;;;;;;6.50;3.87;;;5.30;1.00;;;;;;8396015;28;20202;-65
2023/12/18 21:18:23;;;;;;;6.37;4.27;;;5.40;1.00;;;;;;8388126;28;20185;-66
2023/12/18 21:22:23;;;;;;;5.57;4.00;;;5.40;1.00;;;;;;8387290;28;20195;-64